Briefing drone pour Moirans

Rechercher une autre localisation

Conditions de vol :


Nous sommes le : Mardi 16 avril 2024
Il est 22:29 UTC (00:29 LT)

Lever de soleil : 04:23 UTC (06:23 LT)
Coucher de soleil : 18:51 UTC (20:51 LT)

Météo

L'essentiel des conditions de vol

VIGILANCE MÉTÉO FRANCE - Isère (38)
Vigilance Jaune : Pluie-inondation / Avalanches
CARTE TEMSI
CARTES DES FRONTS
METAR de LFLS
LFLS 152200Z AUTO VRB03KT 9999 BKN062 BKN230 12/05 Q1017

Date d'émission: 15/04/2024
Heure d'émission: 22:00 UTC
Vent: Variable 3 KT (6 km/h)
Visibilité horizontale: > 10 km
Plafond :
- Nuages morcelés à 6200ft (1890m)
- Nuages morcelés à 23000ft (7010m)
Température: 12 °C
Point de rosée: 5 °C
Humidité: 62%
Pression (QNH): 1017 hPa
TAF de LFLS
LFLS 151916Z 1519/1615 CNL

Conditions prévues :

Heure d'émission : Bulletin éffectué le 15 à 19:00 UTC
Prévision : Valide du 15 a 19:00 UTC au 16 a 15:00 UTC
Nuages : à 0ft (0 m)
WEBCAM POUR MOIRANS

Réglementation

Voler en sécurité

CARTES AERONAUTIQUE 1/500.000
CARTE AZBA (Reseau basse altitude)
CARTES VAC (LFLS)
SUP AIP




Chargement des AIP...
NOTAM (MOIRANS + Terrain à proximité / FIR )




Chargement des NOTAMS...
CONTACT PREFECTURE 38
Isère (38) : [email protected]


Avertissement : Les données mises à disposition sont indicatives. Oxygène Drone ne pourra être tenu responsable de dégâts causés aux biens et aux personnes.